createdAt,value
2022-07-28T00:00:24.240Z,99321.45
2022-07-28T00:02:56.368Z,99315.28
2022-07-28T00:05:30.600Z,99318.13
2022-07-28T00:08:03.228Z,99318.94
2022-07-28T00:10:35.802Z,99323.81
2022-07-28T00:13:07.883Z,99325.48
2022-07-28T00:15:39.857Z,99333.68
2022-07-28T00:18:11.789Z,99321.14
2022-07-28T00:20:44.019Z,99325.48
2022-07-28T00:23:16.349Z,99333.52
2022-07-28T00:25:48.704Z,99327.18
2022-07-28T00:28:20.667Z,99327.99
2022-07-28T00:30:54.217Z,99329.01
2022-07-28T00:33:27.113Z,99334.20
2022-07-28T00:35:59.140Z,99330.84
2022-07-28T00:38:32.016Z,99326.83
2022-07-28T00:41:13.403Z,99329.87
2022-07-28T00:43:48.511Z,99327.36
2022-07-28T00:46:23.078Z,99322.00
2022-07-28T00:48:56.540Z,99323.02
2022-07-28T00:51:29.641Z,99332.03
2022-07-28T00:54:01.976Z,99334.55
2022-07-28T00:56:35.924Z,99333.73
2022-07-28T00:59:08.377Z,99328.53
2022-07-28T01:01:40.488Z,99335.89
2022-07-28T01:04:13.096Z,99336.22
2022-07-28T01:06:54.082Z,99338.90
2022-07-28T01:09:53.189Z,99331.88
2022-07-28T01:12:49.304Z,99328.55
2022-07-28T01:15:33.394Z,99326.20
2022-07-28T01:18:08.548Z,99315.33
2022-07-28T01:20:55.673Z,99315.65
2022-07-28T01:23:30.739Z,99323.68
2022-07-28T01:26:26.733Z,99317.14
2022-07-28T01:29:10.711Z,99312.64
2022-07-28T01:31:45.777Z,99315.31
2022-07-28T01:34:23.749Z,99318.64
2022-07-28T01:36:58.834Z,99316.65
2022-07-28T01:39:33.909Z,99318.48
2022-07-28T01:42:08.464Z,99317.13
2022-07-28T01:44:43.571Z,99315.78
2022-07-28T01:47:17.982Z,99316.27
2022-07-28T01:49:51.002Z,99306.40
2022-07-28T01:52:24.599Z,99319.06
2022-07-28T01:55:00.210Z,99313.42
2022-07-28T01:57:35.936Z,99302.88
2022-07-28T02:00:11.635Z,99300.39
2022-07-28T02:02:49.364Z,99305.55
2022-07-28T02:05:23.551Z,99297.72
2022-07-28T02:07:58.580Z,99301.05
2022-07-28T02:10:31.600Z,99308.58
2022-07-28T02:13:05.108Z,99304.38
2022-07-28T02:15:40.344Z,99310.53
2022-07-28T02:18:13.171Z,99307.69
2022-07-28T02:21:03.294Z,99310.16
2022-07-28T02:23:36.686Z,99311.45
2022-07-28T02:26:11.811Z,99300.32
2022-07-28T02:28:47.275Z,99307.81
2022-07-28T02:31:22.646Z,99305.08
2022-07-28T02:34:00.115Z,99302.52
2022-07-28T02:36:38.154Z,99302.47
2022-07-28T02:39:14.832Z,99303.82
2022-07-28T02:41:49.857Z,99295.89
2022-07-28T02:44:24.831Z,99299.89
2022-07-28T02:46:59.362Z,99308.73
2022-07-28T02:49:33.684Z,99311.81
2022-07-28T02:52:07.757Z,99310.66
2022-07-28T02:54:41.289Z,99318.36
2022-07-28T02:57:15.967Z,99314.21
2022-07-28T02:59:51.607Z,99316.73
2022-07-28T03:02:25.165Z,99316.25
2022-07-28T03:04:59.322Z,99320.15
2022-07-28T03:07:36.512Z,99328.13
2022-07-28T03:10:12.590Z,99330.75
2022-07-28T03:12:44.773Z,99327.11
2022-07-28T03:15:17.598Z,99330.91
2022-07-28T03:17:49.682Z,99332.21
2022-07-28T03:20:22.006Z,99331.00
2022-07-28T03:22:54.226Z,99330.81
2022-07-28T03:25:29.977Z,99332.11
2022-07-28T03:28:04.529Z,99328.69
2022-07-28T03:30:42.874Z,99330.42
2022-07-28T03:33:15.206Z,99323.45
2022-07-28T03:35:50.232Z,99319.55
2022-07-28T03:38:27.761Z,99327.25
2022-07-28T03:41:00.903Z,99326.40
2022-07-28T03:43:34.730Z,99331.97
2022-07-28T03:46:12.845Z,99337.16
2022-07-28T03:48:42.587Z,99334.36
2022-07-28T03:51:14.913Z,99335.87
2022-07-28T03:53:47.740Z,99330.30
2022-07-28T03:56:20.080Z,99333.62
2022-07-28T03:58:52.162Z,99331.77
2022-07-28T04:01:24.539Z,99328.05
2022-07-28T04:03:57.263Z,99327.86
2022-07-28T04:06:29.550Z,99335.75
2022-07-28T04:09:01.824Z,99332.43
2022-07-28T04:11:34.277Z,99330.92
2022-07-28T04:14:06.360Z,99330.01
2022-07-28T04:16:39.382Z,99331.34
2022-07-28T04:19:14.442Z,99333.55
2022-07-28T04:21:46.938Z,99339.34
2022-07-28T04:24:20.047Z,99335.98
2022-07-28T04:26:52.781Z,99341.18
2022-07-28T04:29:27.349Z,99330.42
2022-07-28T04:31:59.592Z,99338.49
2022-07-28T04:34:31.657Z,99333.95
2022-07-28T04:37:04.389Z,99342.03
2022-07-28T04:39:36.865Z,99346.82
2022-07-28T04:42:09.361Z,99337.42
2022-07-28T04:44:42.705Z,99345.95
2022-07-28T04:47:15.380Z,99339.92
2022-07-28T04:49:47.501Z,99337.36
2022-07-28T04:52:20.181Z,99333.39
2022-07-28T04:54:52.585Z,99334.62
2022-07-28T04:57:27.053Z,99333.48
2022-07-28T05:00:04.289Z,99333.18
2022-07-28T05:02:37.675Z,99328.97
2022-07-28T05:05:10.685Z,99324.27
2022-07-28T05:07:43.261Z,99331.04
2022-07-28T05:10:16.219Z,99339.04
2022-07-28T05:12:49.897Z,99346.34
2022-07-28T05:15:22.592Z,99336.22
2022-07-28T05:17:55.175Z,99340.38
2022-07-28T05:20:27.805Z,99332.66
2022-07-28T05:23:00.070Z,99330.79
2022-07-28T05:25:32.530Z,99335.98
2022-07-28T05:28:05.995Z,99332.44
2022-07-28T05:30:38.531Z,99338.67
2022-07-28T05:33:10.594Z,99338.67
2022-07-28T05:35:42.920Z,99334.53
2022-07-28T05:38:15.449Z,99342.01
2022-07-28T05:40:50.246Z,99338.70
2022-07-28T05:43:23.139Z,99338.30
2022-07-28T05:45:55.751Z,99339.13
2022-07-28T05:48:28.244Z,99329.17
2022-07-28T05:51:01.317Z,99332.13
2022-07-28T05:53:34.896Z,99331.72
2022-07-28T05:56:08.688Z,99337.56
2022-07-28T05:58:41.132Z,99344.20
2022-07-28T06:01:13.349Z,99338.80
2022-07-28T06:03:58.066Z,99342.31
2022-07-28T06:06:19.398Z,99341.23
2022-07-28T06:08:51.229Z,99344.25
2022-07-28T06:11:24.693Z,99338.56
2022-07-28T06:13:57.562Z,99343.89
2022-07-28T06:16:30.357Z,99337.45
2022-07-28T06:19:02.884Z,99334.67
2022-07-28T06:21:36.944Z,99339.41
2022-07-28T06:24:09.679Z,99339.41
2022-07-28T06:26:44.868Z,99333.61
2022-07-28T06:29:17.028Z,99337.66
2022-07-28T06:31:50.516Z,99335.30
2022-07-28T06:34:23.985Z,99339.76
2022-07-28T06:36:56.552Z,99340.05
2022-07-28T06:39:28.817Z,99341.79
2022-07-28T06:42:01.805Z,99340.34
2022-07-28T06:44:57.520Z,99342.88
2022-07-28T06:47:10.691Z,99345.36
2022-07-28T06:49:43.385Z,99338.66
2022-07-28T06:52:17.378Z,99332.80
2022-07-28T06:54:58.300Z,99329.00
2022-07-28T06:57:33.560Z,99328.92
2022-07-28T07:00:07.940Z,99326.63
2022-07-28T07:02:41.820Z,99330.57
2022-07-28T07:05:14.538Z,99333.06
2022-07-28T07:07:47.236Z,99330.95
2022-07-28T07:10:19.985Z,99332.22
2022-07-28T07:12:52.473Z,99327.39
2022-07-28T07:15:25.656Z,99321.71
2022-07-28T07:18:00.415Z,99334.62
2022-07-28T07:20:32.922Z,99331.59
2022-07-28T07:23:05.670Z,99328.56
2022-07-28T07:25:38.504Z,99330.41
2022-07-28T07:28:11.165Z,99328.48
2022-07-28T07:30:43.942Z,99335.91
2022-07-28T07:33:16.677Z,99332.08
2022-07-28T07:35:48.917Z,99334.44
2022-07-28T07:38:23.169Z,99326.02
2022-07-28T07:40:55.348Z,99326.75
2022-07-28T07:43:27.800Z,99324.10
2022-07-28T07:46:00.236Z,99320.28
2022-07-28T07:48:32.810Z,99319.58
2022-07-28T07:51:05.351Z,99321.23
2022-07-28T07:53:37.957Z,99318.16
2022-07-28T07:56:10.254Z,99327.23
2022-07-28T07:58:44.887Z,99320.92
2022-07-28T08:01:18.449Z,99323.34
2022-07-28T08:03:51.524Z,99328.80
2022-07-28T08:06:26.500Z,99322.91
2022-07-28T08:08:59.425Z,99318.81
2022-07-28T08:11:31.877Z,99316.61
2022-07-28T08:14:04.654Z,99326.52
2022-07-28T08:16:38.075Z,99312.92
2022-07-28T08:19:11.051Z,99307.61
2022-07-28T08:21:43.999Z,99297.56
2022-07-28T08:24:27.615Z,99284.85
2022-07-28T08:26:53.035Z,99276.34
2022-07-28T08:29:25.370Z,99286.18
2022-07-28T08:31:59.946Z,99276.84
2022-07-28T08:34:33.984Z,99277.31
2022-07-28T08:37:07.174Z,99264.67
2022-07-28T08:39:40.092Z,99260.51
2022-07-28T08:42:30.319Z,99261.56
2022-07-28T08:45:07.813Z,99256.81
2022-07-28T08:47:58.659Z,99253.28
2022-07-28T08:50:19.829Z,99257.78
2022-07-28T08:52:53.709Z,99249.95
2022-07-28T08:55:31.887Z,99243.94
2022-07-28T08:58:01.369Z,99255.53
2022-07-28T09:00:33.875Z,99235.77
2022-07-28T09:03:07.230Z,99246.63
2022-07-28T09:05:42.051Z,99251.12
2022-07-28T09:08:14.798Z,99252.64
2022-07-28T09:10:48.410Z,99256.98
2022-07-28T09:13:20.850Z,99251.27
2022-07-28T09:15:53.489Z,99254.74
2022-07-28T09:18:28.143Z,99257.24
2022-07-28T09:21:00.630Z,99265.09
2022-07-28T09:23:48.237Z,99256.31
2022-07-28T09:26:20.585Z,99264.00
2022-07-28T09:28:59.092Z,99261.14
2022-07-28T09:31:31.819Z,99267.09
2022-07-28T09:34:07.405Z,99260.95
2022-07-28T09:36:42.155Z,99246.86
2022-07-28T09:39:17.123Z,99247.79
2022-07-28T09:41:51.703Z,99254.00
2022-07-28T09:44:27.477Z,99252.89
2022-07-28T09:46:59.814Z,99241.93
2022-07-28T09:49:43.494Z,99234.19
2022-07-28T09:52:17.383Z,99228.52
2022-07-28T09:55:03.824Z,99221.55
2022-07-28T09:57:38.051Z,99212.17
2022-07-28T10:00:12.802Z,99224.52
2022-07-28T10:02:48.709Z,99222.13
2022-07-28T10:05:22.640Z,99226.45
2022-07-28T10:07:55.099Z,99234.52
2022-07-28T10:10:27.293Z,99243.50
2022-07-28T10:13:06.920Z,99245.38
2022-07-28T10:15:56.775Z,99247.77
2022-07-28T10:18:28.856Z,99250.38
2022-07-28T10:21:01.209Z,99250.14
2022-07-28T10:23:33.821Z,99253.48
2022-07-28T10:26:13.061Z,99245.10
2022-07-28T10:28:51.978Z,99246.04
2022-07-28T10:31:49.882Z,99242.23
2022-07-28T10:34:43.141Z,99236.36
2022-07-28T10:37:24.561Z,99238.91
2022-07-28T10:40:10.698Z,99242.72
2022-07-28T10:42:42.555Z,99247.77
2022-07-28T10:45:15.585Z,99255.21
2022-07-28T10:47:49.205Z,99268.27
2022-07-28T10:50:23.013Z,99276.27
2022-07-28T10:52:59.344Z,99281.88
2022-07-28T10:55:52.241Z,99269.97
2022-07-28T10:58:36.285Z,99268.11
2022-07-28T11:01:17.066Z,99267.45
2022-07-28T11:03:48.834Z,99262.00
2022-07-28T11:06:44.856Z,99269.45
2022-07-28T11:09:22.950Z,99262.08
2022-07-28T11:11:58.130Z,99277.05
2022-07-28T11:14:37.158Z,99284.64
2022-07-28T11:17:13.465Z,99280.59
2022-07-28T11:20:06.980Z,99279.95
2022-07-28T11:22:27.118Z,99286.14
2022-07-28T11:25:18.732Z,99279.22
2022-07-28T11:27:49.275Z,99294.33
2022-07-28T11:30:33.909Z,99288.91
2022-07-28T11:33:06.788Z,99285.23
2022-07-28T11:35:44.865Z,99296.95
2022-07-28T11:38:17.671Z,99293.30
2022-07-28T11:40:52.267Z,99302.63
2022-07-28T11:43:36.206Z,99314.08
2022-07-28T11:46:11.287Z,99314.87
2022-07-28T11:48:45.467Z,99305.52
2022-07-28T11:51:17.499Z,99303.58
2022-07-28T11:53:53.055Z,99292.91
2022-07-28T11:56:29.498Z,99290.84
2022-07-28T11:59:03.753Z,99292.13
2022-07-28T12:01:38.692Z,99280.41
2022-07-28T12:04:14.818Z,99277.42
2022-07-28T12:06:51.219Z,99258.00
2022-07-28T12:09:33.730Z,99255.59
2022-07-28T12:12:01.923Z,99254.25
2022-07-28T12:14:39.009Z,99256.89
2022-07-28T12:17:12.309Z,99242.11
2022-07-28T12:19:45.851Z,99240.38
2022-07-28T12:22:18.287Z,99250.06
2022-07-28T12:24:53.636Z,99244.30
2022-07-28T12:27:31.894Z,99244.03
2022-07-28T12:30:05.750Z,99269.25
2022-07-28T12:32:38.126Z,99276.63
2022-07-28T12:35:10.692Z,99267.41
2022-07-28T12:37:44.629Z,99252.86
2022-07-28T12:40:27.499Z,99255.09
2022-07-28T12:42:55.309Z,99247.59
2022-07-28T12:45:28.697Z,99246.48
2022-07-28T12:48:10.614Z,99236.06
2022-07-28T12:50:43.661Z,99232.58
2022-07-28T12:53:18.333Z,99220.48
2022-07-28T12:55:53.018Z,99210.83
2022-07-28T12:58:27.629Z,99203.67
2022-07-28T13:01:00.203Z,99194.50
2022-07-28T13:03:33.894Z,99186.73
2022-07-28T13:06:12.200Z,99191.95
2022-07-28T13:08:48.476Z,99211.35
2022-07-28T13:13:57.909Z,99250.41
2022-07-28T13:16:31.015Z,99274.86
2022-07-28T13:19:05.926Z,99312.45
2022-07-28T13:21:41.092Z,99349.87
2022-07-28T13:24:18.678Z,99368.55
2022-07-28T13:26:51.556Z,99372.55
2022-07-28T13:29:24.257Z,99378.14
2022-07-28T13:31:56.715Z,99387.08
2022-07-28T13:34:29.394Z,99411.89
2022-07-28T13:37:01.516Z,99412.31
2022-07-28T13:39:33.754Z,99425.90
2022-07-28T13:42:06.548Z,99448.25
2022-07-28T13:44:40.441Z,99432.83
2022-07-28T13:47:12.675Z,99444.51
2022-07-28T13:49:46.661Z,99441.31
2022-07-28T13:52:32.937Z,99453.22
2022-07-28T13:54:54.274Z,99433.39
2022-07-28T13:57:26.503Z,99427.05
2022-07-28T13:59:58.780Z,99414.16
2022-07-28T14:02:31.025Z,99416.67
2022-07-28T14:05:03.520Z,99429.58
2022-07-28T14:07:35.810Z,99428.42
2022-07-28T14:10:08.715Z,99435.64
2022-07-28T14:12:41.214Z,99439.14
2022-07-28T14:15:15.342Z,99430.45
2022-07-28T14:17:47.777Z,99433.78
2022-07-28T14:20:20.101Z,99433.12
2022-07-28T14:22:52.530Z,99435.63
2022-07-28T14:25:24.851Z,99435.76
2022-07-28T14:27:56.938Z,99444.30
2022-07-28T14:30:33.312Z,99445.07
2022-07-28T14:33:07.325Z,99445.35
2022-07-28T14:35:39.677Z,99447.02
2022-07-28T14:40:45.788Z,99449.42
2022-07-28T14:43:18.206Z,99441.84
2022-07-28T14:46:14.790Z,99442.39
2022-07-28T14:48:24.190Z,99430.05
2022-07-28T14:50:57.235Z,99437.47
2022-07-28T14:53:29.601Z,99423.47
2022-07-28T14:56:01.966Z,99423.06
2022-07-28T14:58:34.171Z,99422.27
2022-07-28T15:01:06.742Z,99420.13
2022-07-28T15:03:43.399Z,99427.05
2022-07-28T15:06:14.018Z,99420.22
2022-07-28T15:08:46.214Z,99418.20
2022-07-28T15:11:18.302Z,99432.38
2022-07-28T15:13:50.496Z,99426.48
2022-07-28T15:16:22.998Z,99429.08
2022-07-28T15:18:55.587Z,99425.34
2022-07-28T15:21:32.979Z,99436.36
2022-07-28T15:24:09.476Z,99427.15
2022-07-28T15:26:41.762Z,99426.45
2022-07-28T15:29:14.668Z,99440.11
2022-07-28T15:31:47.201Z,99429.39
2022-07-28T15:34:20.355Z,99442.58
2022-07-28T15:36:52.777Z,99432.56
2022-07-28T15:39:25.146Z,99428.80
2022-07-28T15:41:58.992Z,99440.39
2022-07-28T15:44:31.914Z,99436.28
2022-07-28T15:47:04.307Z,99430.76
2022-07-28T15:49:36.479Z,99432.89
2022-07-28T15:52:08.639Z,99428.77
2022-07-28T15:54:40.812Z,99432.75
2022-07-28T15:57:13.996Z,99427.79
2022-07-28T15:59:50.170Z,99444.20
2022-07-28T16:02:20.731Z,99460.52
2022-07-28T16:04:54.154Z,99460.47
2022-07-28T16:07:28.248Z,99449.25
2022-07-28T16:10:00.410Z,99454.40
2022-07-28T16:12:33.623Z,99450.98
2022-07-28T16:15:06.571Z,99459.64
2022-07-28T16:17:38.825Z,99464.34
2022-07-28T16:20:11.758Z,99472.92
2022-07-28T16:22:44.360Z,99463.01
2022-07-28T16:25:21.055Z,99467.03
2022-07-28T16:27:54.106Z,99459.63
2022-07-28T16:30:26.989Z,99461.49
2022-07-28T16:32:59.547Z,99461.41
2022-07-28T16:35:34.606Z,99463.84
2022-07-28T16:38:07.984Z,99466.59
2022-07-28T16:40:40.845Z,99471.44
2022-07-28T16:43:13.227Z,99468.35
2022-07-28T16:45:46.172Z,99468.34
2022-07-28T16:48:18.367Z,99466.48
2022-07-28T16:50:50.541Z,99462.90
2022-07-28T16:53:22.411Z,99466.58
2022-07-28T16:55:55.051Z,99466.71
2022-07-28T16:58:27.067Z,99477.88
2022-07-28T17:01:00.121Z,99485.70
2022-07-28T17:03:32.961Z,99488.58
2022-07-28T17:06:05.419Z,99489.97
2022-07-28T17:08:37.647Z,99480.77
2022-07-28T17:11:10.416Z,99492.33
2022-07-28T17:13:45.408Z,99493.87
2022-07-28T17:16:17.019Z,99495.56
2022-07-28T17:18:49.387Z,99496.76
2022-07-28T17:21:21.702Z,99497.78
2022-07-28T17:23:53.932Z,99488.95
2022-07-28T17:29:00.593Z,99500.07
2022-07-28T17:31:33.695Z,99510.16
2022-07-28T17:34:06.390Z,99512.39
2022-07-28T17:36:41.336Z,99511.75
2022-07-28T17:39:14.286Z,99508.77
2022-07-28T17:41:46.269Z,99509.27
2022-07-28T17:44:18.833Z,99523.05
2022-07-28T17:46:52.199Z,99522.86
2022-07-28T17:49:24.378Z,99529.56
2022-07-28T17:51:56.867Z,99523.23
2022-07-28T17:54:30.458Z,99543.66
2022-07-28T17:57:03.443Z,99542.80
2022-07-28T17:59:51.455Z,99552.15
2022-07-28T18:02:10.433Z,99559.05
2022-07-28T18:04:42.560Z,99555.18
2022-07-28T18:07:15.554Z,99558.86
2022-07-28T18:09:47.781Z,99573.05
2022-07-28T18:12:20.028Z,99572.54
2022-07-28T18:14:52.461Z,99577.72
2022-07-28T18:17:25.379Z,99584.39
2022-07-28T18:19:57.685Z,99586.20
2022-07-28T18:22:29.912Z,99577.88
2022-07-28T18:25:03.001Z,99584.20
2022-07-28T18:27:36.960Z,99585.48
2022-07-28T18:30:09.765Z,99589.32
2022-07-28T18:32:41.759Z,99588.92
2022-07-28T18:35:14.070Z,99587.56
2022-07-28T18:37:46.467Z,99587.81
2022-07-28T18:40:21.619Z,99587.45
2022-07-28T18:42:54.217Z,99600.16
2022-07-28T18:45:26.668Z,99593.17
2022-07-28T18:47:59.927Z,99609.48
2022-07-28T18:50:32.443Z,99592.74
2022-07-28T18:53:04.857Z,99598.58
2022-07-28T18:55:36.979Z,99597.42
2022-07-28T18:58:09.389Z,99595.42
2022-07-28T19:00:41.444Z,99588.41
2022-07-28T19:03:13.545Z,99587.73
2022-07-28T19:05:46.511Z,99581.84
2022-07-28T19:08:18.683Z,99586.03
2022-07-28T19:10:50.963Z,99590.22
2022-07-28T19:13:22.983Z,99589.10
2022-07-28T19:15:55.124Z,99594.75
2022-07-28T19:18:27.342Z,99591.38
2022-07-28T19:20:59.854Z,99595.91
2022-07-28T19:23:32.521Z,99589.34
2022-07-28T19:26:04.643Z,99603.45
2022-07-28T19:28:36.734Z,99601.93
2022-07-28T19:31:10.466Z,99609.05
2022-07-28T19:33:43.862Z,99608.34
2022-07-28T19:36:16.526Z,99608.12
2022-07-28T19:38:48.621Z,99608.50
2022-07-28T19:41:20.748Z,99607.13
2022-07-28T19:43:53.073Z,99607.75
2022-07-28T19:46:26.189Z,99619.64
2022-07-28T19:48:58.791Z,99609.59
2022-07-28T19:51:30.863Z,99604.27
2022-07-28T19:54:03.115Z,99602.34
2022-07-28T19:56:35.303Z,99610.20
2022-07-28T19:59:07.309Z,99612.53
2022-07-28T20:01:44.198Z,99610.48
2022-07-28T20:04:13.060Z,99620.05
2022-07-28T20:06:45.249Z,99619.95
2022-07-28T20:09:17.737Z,99621.98
2022-07-28T20:11:50.669Z,99613.48
2022-07-28T20:14:22.652Z,99621.63
2022-07-28T20:16:54.870Z,99625.56
2022-07-28T20:19:27.016Z,99621.76
2022-07-28T20:21:59.275Z,99620.65
2022-07-28T20:24:31.426Z,99623.77
2022-07-28T20:27:08.335Z,99634.85
2022-07-28T20:29:40.600Z,99633.33
2022-07-28T20:32:13.022Z,99631.38
2022-07-28T20:34:45.218Z,99627.59
2022-07-28T20:37:24.507Z,99627.87
2022-07-28T20:39:57.454Z,99641.34
2022-07-28T20:42:29.840Z,99640.38
2022-07-28T20:45:02.187Z,99640.66
2022-07-28T20:47:35.074Z,99651.45
2022-07-28T20:50:08.085Z,99645.58
2022-07-28T20:52:40.255Z,99652.30
2022-07-28T20:55:12.827Z,99653.84
2022-07-28T20:57:53.523Z,99656.09
2022-07-28T21:00:19.075Z,99655.41
2022-07-28T21:02:51.611Z,99658.63
2022-07-28T21:05:26.793Z,99667.73
2022-07-28T21:08:05.080Z,99668.84
2022-07-28T21:10:31.866Z,99656.92
2022-07-28T21:13:03.967Z,99664.36
2022-07-28T21:15:36.167Z,99666.89
2022-07-28T21:18:08.180Z,99670.38
2022-07-28T21:20:40.534Z,99672.77
2022-07-28T21:23:12.599Z,99676.97
2022-07-28T21:25:45.652Z,99674.88
2022-07-28T21:28:35.025Z,99677.09
2022-07-28T21:31:07.842Z,99682.70
2022-07-28T21:33:40.257Z,99684.95
2022-07-28T21:36:12.437Z,99676.55
2022-07-28T21:38:45.695Z,99683.83
2022-07-28T21:41:19.294Z,99686.09
2022-07-28T21:43:53.510Z,99680.76
2022-07-28T21:46:26.513Z,99695.75
2022-07-28T21:49:01.269Z,99693.09
2022-07-28T21:51:34.364Z,99699.00
2022-07-28T21:54:06.629Z,99696.87
2022-07-28T21:56:38.821Z,99690.15
2022-07-28T21:59:10.902Z,99703.61
2022-07-28T22:01:43.157Z,99702.48
2022-07-28T22:04:15.704Z,99702.52
2022-07-28T22:06:48.442Z,99701.25
2022-07-28T22:09:20.805Z,99706.58
2022-07-28T22:11:53.084Z,99704.87
2022-07-28T22:14:26.973Z,99695.34
2022-07-28T22:17:01.506Z,99705.86
2022-07-28T22:19:34.151Z,99700.12
2022-07-28T22:22:06.160Z,99706.14
2022-07-28T22:24:38.419Z,99708.80
2022-07-28T22:27:10.478Z,99706.44
2022-07-28T22:29:43.484Z,99710.78
2022-07-28T22:32:16.546Z,99710.91
2022-07-28T22:34:48.993Z,99711.91
2022-07-28T22:37:20.975Z,99714.56
2022-07-28T22:39:53.276Z,99714.27
2022-07-28T22:42:25.284Z,99717.92
2022-07-28T22:44:57.292Z,99717.37
2022-07-28T22:47:29.734Z,99718.19
2022-07-28T22:50:01.723Z,99715.69
2022-07-28T22:52:34.585Z,99718.36
2022-07-28T22:55:07.189Z,99716.52
2022-07-28T22:57:40.498Z,99726.18
2022-07-28T23:00:12.856Z,99720.58
2022-07-28T23:02:44.966Z,99719.18
2022-07-28T23:05:17.239Z,99721.02
2022-07-28T23:07:53.093Z,99732.78
2022-07-28T23:10:23.172Z,99731.51
2022-07-28T23:12:58.583Z,99734.02
2022-07-28T23:15:40.902Z,99726.33
2022-07-28T23:18:03.369Z,99731.93
2022-07-28T23:20:35.820Z,99733.91
2022-07-28T23:23:08.122Z,99736.57
2022-07-28T23:25:43.046Z,99734.04
2022-07-28T23:28:15.245Z,99737.66
2022-07-28T23:30:48.229Z,99738.78
2022-07-28T23:33:54.659Z,99745.49
2022-07-28T23:35:55.802Z,99743.81
2022-07-28T23:38:27.882Z,99742.83
2022-07-28T23:40:59.894Z,99755.05
2022-07-28T23:43:32.173Z,99754.20
2022-07-28T23:46:04.210Z,99756.44
2022-07-28T23:48:36.892Z,99752.04
2022-07-28T23:51:08.990Z,99759.44
2022-07-28T23:53:42.850Z,99760.69
2022-07-28T23:56:15.960Z,99762.52
2022-07-28T23:58:47.995Z,99763.77
